sensor_id;sensor_type;location;lat;lon;timestamp;P1;durP1;ratioP1;P2;durP2;ratioP2
20296;SDS011;10307;40.100;18.336;2023-01-05T00:01:50;27.27;;;9.15;;
20296;SDS011;10307;40.100;18.336;2023-01-05T00:04:17;20.98;;;8.60;;
20296;SDS011;10307;40.100;18.336;2023-01-05T00:06:43;24.00;;;10.18;;
20296;SDS011;10307;40.100;18.336;2023-01-05T00:09:11;23.17;;;9.90;;
20296;SDS011;10307;40.100;18.336;2023-01-05T00:11:39;19.95;;;9.35;;
20296;SDS011;10307;40.100;18.336;2023-01-05T00:14:25;18.73;;;8.98;;
20296;SDS011;10307;40.100;18.336;2023-01-05T00:17:13;20.48;;;9.18;;
20296;SDS011;10307;40.100;18.336;2023-01-05T00:20:09;21.75;;;10.27;;
20296;SDS011;10307;40.100;18.336;2023-01-05T00:23:00;20.27;;;9.40;;
20296;SDS011;10307;40.100;18.336;2023-01-05T00:25:28;20.52;;;10.07;;
20296;SDS011;10307;40.100;18.336;2023-01-05T00:27:56;22.17;;;10.82;;
20296;SDS011;10307;40.100;18.336;2023-01-05T00:30:24;22.15;;;9.00;;
20296;SDS011;10307;40.100;18.336;2023-01-05T00:32:53;24.02;;;10.15;;
20296;SDS011;10307;40.100;18.336;2023-01-05T00:35:19;22.08;;;10.13;;
20296;SDS011;10307;40.100;18.336;2023-01-05T00:37:47;21.63;;;9.30;;
20296;SDS011;10307;40.100;18.336;2023-01-05T00:40:15;20.77;;;10.13;;
20296;SDS011;10307;40.100;18.336;2023-01-05T00:42:43;23.48;;;9.68;;
20296;SDS011;10307;40.100;18.336;2023-01-05T00:45:10;22.17;;;10.60;;
20296;SDS011;10307;40.100;18.336;2023-01-05T00:47:38;19.27;;;9.75;;
20296;SDS011;10307;40.100;18.336;2023-01-05T00:50:05;18.95;;;9.57;;
20296;SDS011;10307;40.100;18.336;2023-01-05T00:52:33;18.08;;;9.05;;
20296;SDS011;10307;40.100;18.336;2023-01-05T00:55:00;21.60;;;9.57;;
20296;SDS011;10307;40.100;18.336;2023-01-05T00:57:26;24.20;;;9.07;;
20296;SDS011;10307;40.100;18.336;2023-01-05T00:59:54;24.73;;;9.40;;
20296;SDS011;10307;40.100;18.336;2023-01-05T01:02:20;21.63;;;8.77;;
20296;SDS011;10307;40.100;18.336;2023-01-05T01:04:47;19.90;;;8.43;;
20296;SDS011;10307;40.100;18.336;2023-01-05T01:07:13;19.23;;;8.32;;
20296;SDS011;10307;40.100;18.336;2023-01-05T01:09:42;18.13;;;8.98;;
20296;SDS011;10307;40.100;18.336;2023-01-05T01:12:08;21.27;;;8.75;;
20296;SDS011;10307;40.100;18.336;2023-01-05T01:14:34;16.40;;;8.32;;
20296;SDS011;10307;40.100;18.336;2023-01-05T01:17:01;21.88;;;8.30;;
20296;SDS011;10307;40.100;18.336;2023-01-05T01:19:27;18.13;;;8.93;;
20296;SDS011;10307;40.100;18.336;2023-01-05T01:21:53;24.98;;;9.73;;
20296;SDS011;10307;40.100;18.336;2023-01-05T01:24:21;19.17;;;8.70;;
20296;SDS011;10307;40.100;18.336;2023-01-05T01:26:49;18.85;;;8.68;;
20296;SDS011;10307;40.100;18.336;2023-01-05T01:29:15;23.58;;;8.23;;
20296;SDS011;10307;40.100;18.336;2023-01-05T01:31:43;20.90;;;8.70;;
20296;SDS011;10307;40.100;18.336;2023-01-05T01:34:11;25.65;;;9.32;;
20296;SDS011;10307;40.100;18.336;2023-01-05T01:36:39;21.02;;;8.90;;
20296;SDS011;10307;40.100;18.336;2023-01-05T01:39:05;20.40;;;8.88;;
20296;SDS011;10307;40.100;18.336;2023-01-05T01:41:34;19.60;;;9.07;;
20296;SDS011;10307;40.100;18.336;2023-01-05T01:44:01;17.55;;;8.18;;
20296;SDS011;10307;40.100;18.336;2023-01-05T01:46:28;20.05;;;8.35;;
20296;SDS011;10307;40.100;18.336;2023-01-05T01:48:59;16.00;;;7.53;;
20296;SDS011;10307;40.100;18.336;2023-01-05T01:51:47;18.23;;;8.93;;
20296;SDS011;10307;40.100;18.336;2023-01-05T01:54:14;21.98;;;8.85;;
20296;SDS011;10307;40.100;18.336;2023-01-05T01:56:44;17.13;;;8.38;;
20296;SDS011;10307;40.100;18.336;2023-01-05T01:59:19;24.17;;;7.90;;
20296;SDS011;10307;40.100;18.336;2023-01-05T02:01:47;20.20;;;9.20;;
20296;SDS011;10307;40.100;18.336;2023-01-05T02:04:18;24.48;;;9.15;;
20296;SDS011;10307;40.100;18.336;2023-01-05T02:06:45;18.00;;;8.45;;
20296;SDS011;10307;40.100;18.336;2023-01-05T02:09:11;22.73;;;8.88;;
20296;SDS011;10307;40.100;18.336;2023-01-05T02:11:47;23.15;;;9.48;;
20296;SDS011;10307;40.100;18.336;2023-01-05T02:14:48;16.88;;;8.50;;
20296;SDS011;10307;40.100;18.336;2023-01-05T02:21:28;31.30;;;10.27;;
20296;SDS011;10307;40.100;18.336;2023-01-05T02:31:20;25.42;;;9.00;;
20296;SDS011;10307;40.100;18.336;2023-01-05T02:39:15;22.98;;;8.38;;
20296;SDS011;10307;40.100;18.336;2023-01-05T02:41:48;20.42;;;9.48;;
20296;SDS011;10307;40.100;18.336;2023-01-05T02:44:22;22.45;;;8.43;;
20296;SDS011;10307;40.100;18.336;2023-01-05T02:49:32;21.00;;;8.38;;
20296;SDS011;10307;40.100;18.336;2023-01-05T02:52:04;18.88;;;8.80;;
20296;SDS011;10307;40.100;18.336;2023-01-05T02:54:35;21.45;;;8.88;;
20296;SDS011;10307;40.100;18.336;2023-01-05T02:57:17;20.73;;;8.57;;
20296;SDS011;10307;40.100;18.336;2023-01-05T03:00:08;21.65;;;8.52;;
20296;SDS011;10307;40.100;18.336;2023-01-05T03:02:36;19.35;;;8.80;;
20296;SDS011;10307;40.100;18.336;2023-01-05T03:05:07;21.42;;;8.05;;
20296;SDS011;10307;40.100;18.336;2023-01-05T03:07:39;25.00;;;9.35;;
20296;SDS011;10307;40.100;18.336;2023-01-05T03:10:11;16.95;;;7.60;;
20296;SDS011;10307;40.100;18.336;2023-01-05T03:12:58;18.33;;;8.70;;
20296;SDS011;10307;40.100;18.336;2023-01-05T03:15:48;18.20;;;7.72;;
20296;SDS011;10307;40.100;18.336;2023-01-05T03:18:23;19.67;;;8.82;;
20296;SDS011;10307;40.100;18.336;2023-01-05T03:20:51;22.25;;;8.95;;
20296;SDS011;10307;40.100;18.336;2023-01-05T03:23:20;21.60;;;9.18;;
20296;SDS011;10307;40.100;18.336;2023-01-05T03:26:06;21.70;;;9.43;;
20296;SDS011;10307;40.100;18.336;2023-01-05T03:28:55;23.73;;;9.30;;
20296;SDS011;10307;40.100;18.336;2023-01-05T03:31:47;21.38;;;8.73;;
20296;SDS011;10307;40.100;18.336;2023-01-05T03:37:41;22.40;;;8.43;;
20296;SDS011;10307;40.100;18.336;2023-01-05T03:40:26;17.15;;;9.43;;
20296;SDS011;10307;40.100;18.336;2023-01-05T03:42:55;23.90;;;9.35;;
20296;SDS011;10307;40.100;18.336;2023-01-05T03:45:23;23.95;;;10.38;;
20296;SDS011;10307;40.100;18.336;2023-01-05T03:47:53;18.95;;;9.25;;
20296;SDS011;10307;40.100;18.336;2023-01-05T03:50:24;24.42;;;9.93;;
20296;SDS011;10307;40.100;18.336;2023-01-05T03:52:51;18.58;;;8.43;;
20296;SDS011;10307;40.100;18.336;2023-01-05T03:55:17;20.73;;;8.02;;
20296;SDS011;10307;40.100;18.336;2023-01-05T03:57:45;22.75;;;9.60;;
20296;SDS011;10307;40.100;18.336;2023-01-05T04:00:12;18.42;;;9.55;;
20296;SDS011;10307;40.100;18.336;2023-01-05T04:02:48;18.60;;;8.90;;
20296;SDS011;10307;40.100;18.336;2023-01-05T04:05:18;24.63;;;9.68;;
20296;SDS011;10307;40.100;18.336;2023-01-05T04:07:46;24.88;;;10.30;;
20296;SDS011;10307;40.100;18.336;2023-01-05T04:10:13;20.13;;;9.00;;
20296;SDS011;10307;40.100;18.336;2023-01-05T04:12:41;21.17;;;8.93;;
20296;SDS011;10307;40.100;18.336;2023-01-05T04:15:08;19.95;;;8.77;;
20296;SDS011;10307;40.100;18.336;2023-01-05T04:17:36;16.05;;;8.18;;
20296;SDS011;10307;40.100;18.336;2023-01-05T04:20:02;20.13;;;7.82;;
20296;SDS011;10307;40.100;18.336;2023-01-05T04:22:32;20.08;;;8.48;;
20296;SDS011;10307;40.100;18.336;2023-01-05T04:24:58;19.33;;;8.88;;
20296;SDS011;10307;40.100;18.336;2023-01-05T04:27:27;18.60;;;9.05;;
20296;SDS011;10307;40.100;18.336;2023-01-05T04:29:54;23.02;;;8.27;;
20296;SDS011;10307;40.100;18.336;2023-01-05T04:32:21;18.38;;;8.15;;
20296;SDS011;10307;40.100;18.336;2023-01-05T04:34:47;16.45;;;8.60;;
20296;SDS011;10307;40.100;18.336;2023-01-05T04:37:15;28.63;;;9.48;;
20296;SDS011;10307;40.100;18.336;2023-01-05T04:39:41;19.90;;;8.38;;
20296;SDS011;10307;40.100;18.336;2023-01-05T04:42:07;21.35;;;9.63;;
20296;SDS011;10307;40.100;18.336;2023-01-05T04:44:34;20.05;;;9.15;;
20296;SDS011;10307;40.100;18.336;2023-01-05T04:47:03;24.63;;;9.35;;
20296;SDS011;10307;40.100;18.336;2023-01-05T04:49:29;18.15;;;8.88;;
20296;SDS011;10307;40.100;18.336;2023-01-05T04:51:56;22.85;;;10.00;;
20296;SDS011;10307;40.100;18.336;2023-01-05T04:54:23;21.98;;;9.77;;
20296;SDS011;10307;40.100;18.336;2023-01-05T04:56:50;23.33;;;8.85;;
20296;SDS011;10307;40.100;18.336;2023-01-05T04:59:17;19.02;;;8.73;;
20296;SDS011;10307;40.100;18.336;2023-01-05T05:01:44;23.58;;;8.48;;
20296;SDS011;10307;40.100;18.336;2023-01-05T05:04:13;17.23;;;8.57;;
20296;SDS011;10307;40.100;18.336;2023-01-05T05:06:40;21.20;;;8.93;;
20296;SDS011;10307;40.100;18.336;2023-01-05T05:09:06;22.13;;;9.95;;
20296;SDS011;10307;40.100;18.336;2023-01-05T05:11:35;28.88;;;11.80;;
20296;SDS011;10307;40.100;18.336;2023-01-05T05:14:01;32.25;;;14.07;;
20296;SDS011;10307;40.100;18.336;2023-01-05T05:16:28;39.45;;;21.92;;
20296;SDS011;10307;40.100;18.336;2023-01-05T05:18:54;29.85;;;18.25;;
20296;SDS011;10307;40.100;18.336;2023-01-05T05:21:25;25.60;;;12.45;;
20296;SDS011;10307;40.100;18.336;2023-01-05T05:23:51;31.67;;;15.18;;
20296;SDS011;10307;40.100;18.336;2023-01-05T05:26:18;29.08;;;14.25;;
20296;SDS011;10307;40.100;18.336;2023-01-05T05:28:46;28.30;;;12.52;;
20296;SDS011;10307;40.100;18.336;2023-01-05T05:31:12;27.50;;;14.32;;
20296;SDS011;10307;40.100;18.336;2023-01-05T05:33:39;24.63;;;13.23;;
20296;SDS011;10307;40.100;18.336;2023-01-05T05:36:06;31.58;;;15.68;;
20296;SDS011;10307;40.100;18.336;2023-01-05T05:38:32;29.08;;;12.77;;
20296;SDS011;10307;40.100;18.336;2023-01-05T05:40:59;29.02;;;10.63;;
20296;SDS011;10307;40.100;18.336;2023-01-05T05:43:25;40.30;;;15.80;;
20296;SDS011;10307;40.100;18.336;2023-01-05T05:45:51;24.05;;;13.13;;
20296;SDS011;10307;40.100;18.336;2023-01-05T05:48:18;25.65;;;11.60;;
20296;SDS011;10307;40.100;18.336;2023-01-05T05:50:44;22.30;;;10.23;;
20296;SDS011;10307;40.100;18.336;2023-01-05T05:53:11;25.13;;;10.20;;
20296;SDS011;10307;40.100;18.336;2023-01-05T05:55:37;25.13;;;11.75;;
20296;SDS011;10307;40.100;18.336;2023-01-05T05:58:03;30.00;;;13.93;;
20296;SDS011;10307;40.100;18.336;2023-01-05T06:00:30;38.45;;;19.83;;
20296;SDS011;10307;40.100;18.336;2023-01-05T06:02:56;34.15;;;16.42;;
20296;SDS011;10307;40.100;18.336;2023-01-05T06:05:22;33.40;;;14.68;;
20296;SDS011;10307;40.100;18.336;2023-01-05T06:07:49;24.70;;;10.77;;
20296;SDS011;10307;40.100;18.336;2023-01-05T06:10:15;21.98;;;10.32;;
20296;SDS011;10307;40.100;18.336;2023-01-05T06:12:41;20.27;;;9.80;;
20296;SDS011;10307;40.100;18.336;2023-01-05T06:15:07;24.10;;;10.60;;
20296;SDS011;10307;40.100;18.336;2023-01-05T06:17:34;22.10;;;10.35;;
20296;SDS011;10307;40.100;18.336;2023-01-05T06:20:00;19.42;;;9.25;;
20296;SDS011;10307;40.100;18.336;2023-01-05T06:22:27;26.55;;;11.18;;
20296;SDS011;10307;40.100;18.336;2023-01-05T06:24:53;37.70;;;16.75;;
20296;SDS011;10307;40.100;18.336;2023-01-05T06:27:19;31.77;;;12.73;;
20296;SDS011;10307;40.100;18.336;2023-01-05T06:29:46;26.13;;;10.30;;
20296;SDS011;10307;40.100;18.336;2023-01-05T06:32:12;21.85;;;9.30;;
20296;SDS011;10307;40.100;18.336;2023-01-05T06:34:38;23.17;;;10.45;;
20296;SDS011;10307;40.100;18.336;2023-01-05T06:37:04;24.42;;;10.63;;
20296;SDS011;10307;40.100;18.336;2023-01-05T06:39:31;19.90;;;9.20;;
20296;SDS011;10307;40.100;18.336;2023-01-05T06:41:57;31.83;;;11.05;;
20296;SDS011;10307;40.100;18.336;2023-01-05T06:44:23;17.70;;;9.27;;
20296;SDS011;10307;40.100;18.336;2023-01-05T06:46:50;21.63;;;10.20;;
20296;SDS011;10307;40.100;18.336;2023-01-05T06:49:16;21.80;;;10.32;;
20296;SDS011;10307;40.100;18.336;2023-01-05T06:51:42;21.70;;;8.93;;
20296;SDS011;10307;40.100;18.336;2023-01-05T06:54:09;22.67;;;9.93;;
20296;SDS011;10307;40.100;18.336;2023-01-05T06:56:35;23.50;;;9.55;;
20296;SDS011;10307;40.100;18.336;2023-01-05T06:59:01;23.45;;;9.00;;
20296;SDS011;10307;40.100;18.336;2023-01-05T07:01:28;23.00;;;10.13;;
20296;SDS011;10307;40.100;18.336;2023-01-05T07:03:54;23.98;;;9.75;;
20296;SDS011;10307;40.100;18.336;2023-01-05T07:06:21;22.20;;;10.63;;
20296;SDS011;10307;40.100;18.336;2023-01-05T07:08:47;21.15;;;9.35;;
20296;SDS011;10307;40.100;18.336;2023-01-05T07:11:13;21.92;;;9.90;;
20296;SDS011;10307;40.100;18.336;2023-01-05T07:13:39;25.17;;;9.85;;
20296;SDS011;10307;40.100;18.336;2023-01-05T07:16:06;21.55;;;9.30;;
20296;SDS011;10307;40.100;18.336;2023-01-05T07:18:32;22.10;;;9.55;;
20296;SDS011;10307;40.100;18.336;2023-01-05T07:20:59;25.40;;;9.90;;
20296;SDS011;10307;40.100;18.336;2023-01-05T07:23:25;20.77;;;9.85;;
20296;SDS011;10307;40.100;18.336;2023-01-05T07:25:51;24.60;;;10.30;;
20296;SDS011;10307;40.100;18.336;2023-01-05T07:28:17;23.27;;;10.35;;
20296;SDS011;10307;40.100;18.336;2023-01-05T07:30:49;19.05;;;10.00;;
20296;SDS011;10307;40.100;18.336;2023-01-05T07:33:17;23.70;;;9.48;;
20296;SDS011;10307;40.100;18.336;2023-01-05T07:35:43;25.13;;;9.93;;
20296;SDS011;10307;40.100;18.336;2023-01-05T07:38:09;27.35;;;10.70;;
20296;SDS011;10307;40.100;18.336;2023-01-05T07:40:35;23.92;;;10.30;;
20296;SDS011;10307;40.100;18.336;2023-01-05T07:43:02;22.95;;;10.30;;
20296;SDS011;10307;40.100;18.336;2023-01-05T07:45:28;24.15;;;9.68;;
20296;SDS011;10307;40.100;18.336;2023-01-05T07:47:55;23.67;;;11.32;;
20296;SDS011;10307;40.100;18.336;2023-01-05T07:50:21;24.15;;;10.25;;
20296;SDS011;10307;40.100;18.336;2023-01-05T07:52:48;18.67;;;9.82;;
20296;SDS011;10307;40.100;18.336;2023-01-05T07:55:14;23.45;;;9.68;;
20296;SDS011;10307;40.100;18.336;2023-01-05T07:57:40;24.83;;;11.32;;
20296;SDS011;10307;40.100;18.336;2023-01-05T08:00:08;21.17;;;10.65;;
20296;SDS011;10307;40.100;18.336;2023-01-05T08:02:39;26.17;;;10.35;;
20296;SDS011;10307;40.100;18.336;2023-01-05T08:05:06;28.73;;;10.23;;
20296;SDS011;10307;40.100;18.336;2023-01-05T08:07:34;23.83;;;10.80;;
20296;SDS011;10307;40.100;18.336;2023-01-05T08:10:01;23.42;;;10.50;;
20296;SDS011;10307;40.100;18.336;2023-01-05T08:12:46;24.88;;;9.63;;
20296;SDS011;10307;40.100;18.336;2023-01-05T08:15:31;22.95;;;9.13;;
20296;SDS011;10307;40.100;18.336;2023-01-05T08:17:57;24.88;;;10.00;;
20296;SDS011;10307;40.100;18.336;2023-01-05T08:20:23;21.30;;;9.75;;
20296;SDS011;10307;40.100;18.336;2023-01-05T08:22:50;18.60;;;9.15;;
20296;SDS011;10307;40.100;18.336;2023-01-05T08:25:17;28.33;;;9.88;;
20296;SDS011;10307;40.100;18.336;2023-01-05T08:27:44;22.45;;;10.75;;
20296;SDS011;10307;40.100;18.336;2023-01-05T08:30:12;22.17;;;9.55;;
20296;SDS011;10307;40.100;18.336;2023-01-05T08:32:39;22.70;;;9.45;;
20296;SDS011;10307;40.100;18.336;2023-01-05T08:35:07;25.48;;;10.40;;
20296;SDS011;10307;40.100;18.336;2023-01-05T08:37:34;20.00;;;9.77;;
20296;SDS011;10307;40.100;18.336;2023-01-05T08:40:00;22.48;;;9.57;;
20296;SDS011;10307;40.100;18.336;2023-01-05T08:42:27;22.35;;;11.05;;
20296;SDS011;10307;40.100;18.336;2023-01-05T08:44:53;20.08;;;9.20;;
20296;SDS011;10307;40.100;18.336;2023-01-05T08:47:19;17.55;;;8.77;;
20296;SDS011;10307;40.100;18.336;2023-01-05T08:49:46;22.15;;;10.27;;
20296;SDS011;10307;40.100;18.336;2023-01-05T08:52:14;20.85;;;9.25;;
20296;SDS011;10307;40.100;18.336;2023-01-05T08:54:40;19.20;;;9.38;;
20296;SDS011;10307;40.100;18.336;2023-01-05T08:57:08;22.88;;;9.40;;
20296;SDS011;10307;40.100;18.336;2023-01-05T08:59:34;26.75;;;9.45;;
20296;SDS011;10307;40.100;18.336;2023-01-05T09:02:00;22.40;;;10.30;;
20296;SDS011;10307;40.100;18.336;2023-01-05T09:04:26;19.10;;;9.55;;
20296;SDS011;10307;40.100;18.336;2023-01-05T09:06:53;20.83;;;9.02;;
20296;SDS011;10307;40.100;18.336;2023-01-05T09:09:20;22.88;;;8.35;;
20296;SDS011;10307;40.100;18.336;2023-01-05T09:11:48;24.15;;;8.80;;
20296;SDS011;10307;40.100;18.336;2023-01-05T09:14:15;20.10;;;9.63;;
20296;SDS011;10307;40.100;18.336;2023-01-05T09:16:41;24.60;;;10.50;;
20296;SDS011;10307;40.100;18.336;2023-01-05T09:19:07;18.85;;;8.88;;
20296;SDS011;10307;40.100;18.336;2023-01-05T09:21:35;19.05;;;7.95;;
20296;SDS011;10307;40.100;18.336;2023-01-05T09:24:04;17.90;;;7.90;;
20296;SDS011;10307;40.100;18.336;2023-01-05T09:26:32;19.10;;;8.02;;
20296;SDS011;10307;40.100;18.336;2023-01-05T09:28:58;17.95;;;8.50;;
20296;SDS011;10307;40.100;18.336;2023-01-05T09:31:25;18.98;;;8.45;;
20296;SDS011;10307;40.100;18.336;2023-01-05T09:33:51;19.13;;;7.75;;
20296;SDS011;10307;40.100;18.336;2023-01-05T09:36:17;19.27;;;8.25;;
20296;SDS011;10307;40.100;18.336;2023-01-05T09:38:53;19.35;;;7.70;;
20296;SDS011;10307;40.100;18.336;2023-01-05T09:41:22;18.95;;;7.72;;
20296;SDS011;10307;40.100;18.336;2023-01-05T09:43:59;17.15;;;8.57;;
20296;SDS011;10307;40.100;18.336;2023-01-05T09:49:15;19.63;;;8.73;;
20296;SDS011;10307;40.100;18.336;2023-01-05T09:51:45;17.52;;;8.30;;
20296;SDS011;10307;40.100;18.336;2023-01-05T09:54:20;20.80;;;8.75;;
20296;SDS011;10307;40.100;18.336;2023-01-05T09:56:49;20.60;;;8.07;;
20296;SDS011;10307;40.100;18.336;2023-01-05T10:01:54;18.38;;;8.27;;
20296;SDS011;10307;40.100;18.336;2023-01-05T10:04:24;17.98;;;8.05;;
20296;SDS011;10307;40.100;18.336;2023-01-05T10:06:54;15.38;;;6.93;;
20296;SDS011;10307;40.100;18.336;2023-01-05T10:09:27;13.83;;;6.87;;
20296;SDS011;10307;40.100;18.336;2023-01-05T10:17:34;17.77;;;7.45;;
20296;SDS011;10307;40.100;18.336;2023-01-05T10:20:17;18.73;;;7.27;;
20296;SDS011;10307;40.100;18.336;2023-01-05T10:25:53;16.05;;;7.07;;
20296;SDS011;10307;40.100;18.336;2023-01-05T10:28:50;26.10;;;10.18;;
20296;SDS011;10307;40.100;18.336;2023-01-05T10:31:46;18.50;;;7.30;;
20296;SDS011;10307;40.100;18.336;2023-01-05T10:42:28;12.77;;;6.22;;
20296;SDS011;10307;40.100;18.336;2023-01-05T10:45:07;15.27;;;7.00;;
20296;SDS011;10307;40.100;18.336;2023-01-05T10:47:36;17.08;;;6.97;;
20296;SDS011;10307;40.100;18.336;2023-01-05T10:50:17;17.50;;;7.75;;
20296;SDS011;10307;40.100;18.336;2023-01-05T10:52:54;14.98;;;6.82;;
20296;SDS011;10307;40.100;18.336;2023-01-05T10:55:21;15.45;;;7.28;;
20296;SDS011;10307;40.100;18.336;2023-01-05T10:57:48;17.02;;;7.05;;
20296;SDS011;10307;40.100;18.336;2023-01-05T11:00:16;17.05;;;7.10;;
20296;SDS011;10307;40.100;18.336;2023-01-05T11:02:46;20.83;;;7.82;;
20296;SDS011;10307;40.100;18.336;2023-01-05T11:05:25;17.55;;;7.40;;
20296;SDS011;10307;40.100;18.336;2023-01-05T11:08:01;14.65;;;5.90;;
20296;SDS011;10307;40.100;18.336;2023-01-05T11:10:32;14.18;;;6.35;;
20296;SDS011;10307;40.100;18.336;2023-01-05T11:15:32;14.70;;;6.25;;
20296;SDS011;10307;40.100;18.336;2023-01-05T11:18:06;16.45;;;6.15;;
20296;SDS011;10307;40.100;18.336;2023-01-05T11:21:02;14.88;;;6.88;;
20296;SDS011;10307;40.100;18.336;2023-01-05T11:23:37;17.17;;;7.00;;
20296;SDS011;10307;40.100;18.336;2023-01-05T11:26:20;13.57;;;6.18;;
20296;SDS011;10307;40.100;18.336;2023-01-05T11:31:47;16.88;;;6.38;;
20296;SDS011;10307;40.100;18.336;2023-01-05T11:47:47;15.77;;;8.27;;
20296;SDS011;10307;40.100;18.336;2023-01-05T11:50:22;15.15;;;7.70;;
20296;SDS011;10307;40.100;18.336;2023-01-05T11:52:53;19.05;;;7.00;;
20296;SDS011;10307;40.100;18.336;2023-01-05T11:55:25;18.58;;;8.20;;
20296;SDS011;10307;40.100;18.336;2023-01-05T11:58:40;17.35;;;6.95;;
20296;SDS011;10307;40.100;18.336;2023-01-05T12:06:34;11.85;;;6.15;;
20296;SDS011;10307;40.100;18.336;2023-01-05T12:17:47;14.95;;;7.05;;
20296;SDS011;10307;40.100;18.336;2023-01-05T12:26:15;10.88;;;5.50;;
20296;SDS011;10307;40.100;18.336;2023-01-05T12:31:39;14.55;;;6.82;;
20296;SDS011;10307;40.100;18.336;2023-01-05T12:37:23;12.85;;;6.18;;
20296;SDS011;10307;40.100;18.336;2023-01-05T12:42:50;23.60;;;9.88;;
20296;SDS011;10307;40.100;18.336;2023-01-05T12:46:07;13.13;;;6.22;;
20296;SDS011;10307;40.100;18.336;2023-01-05T12:48:30;11.85;;;5.80;;
20296;SDS011;10307;40.100;18.336;2023-01-05T12:51:10;18.38;;;6.50;;
20296;SDS011;10307;40.100;18.336;2023-01-05T12:53:55;15.65;;;6.18;;
20296;SDS011;10307;40.100;18.336;2023-01-05T12:56:27;11.45;;;6.05;;
20296;SDS011;10307;40.100;18.336;2023-01-05T13:04:44;11.50;;;5.22;;
20296;SDS011;10307;40.100;18.336;2023-01-05T13:09:59;15.52;;;5.78;;
20296;SDS011;10307;40.100;18.336;2023-01-05T13:12:30;10.88;;;5.68;;
20296;SDS011;10307;40.100;18.336;2023-01-05T13:17:46;16.75;;;6.18;;
20296;SDS011;10307;40.100;18.336;2023-01-05T13:20:21;15.98;;;6.68;;
20296;SDS011;10307;40.100;18.336;2023-01-05T13:23:03;14.75;;;6.20;;
20296;SDS011;10307;40.100;18.336;2023-01-05T13:25:41;15.88;;;6.32;;
20296;SDS011;10307;40.100;18.336;2023-01-05T13:28:18;13.68;;;6.40;;
20296;SDS011;10307;40.100;18.336;2023-01-05T13:30:53;16.83;;;5.90;;
20296;SDS011;10307;40.100;18.336;2023-01-05T13:33:31;19.65;;;9.43;;
20296;SDS011;10307;40.100;18.336;2023-01-05T13:47:52;11.32;;;5.90;;
20296;SDS011;10307;40.100;18.336;2023-01-05T13:53:11;16.15;;;6.75;;
20296;SDS011;10307;40.100;18.336;2023-01-05T13:55:42;20.02;;;7.28;;
20296;SDS011;10307;40.100;18.336;2023-01-05T13:58:31;18.80;;;8.82;;
20296;SDS011;10307;40.100;18.336;2023-01-05T14:00:58;20.30;;;10.37;;
20296;SDS011;10307;40.100;18.336;2023-01-05T14:03:39;17.00;;;8.32;;
20296;SDS011;10307;40.100;18.336;2023-01-05T14:06:36;21.27;;;11.02;;
20296;SDS011;10307;40.100;18.336;2023-01-05T14:09:11;18.80;;;11.57;;
20296;SDS011;10307;40.100;18.336;2023-01-05T14:17:52;29.02;;;20.17;;
20296;SDS011;10307;40.100;18.336;2023-01-05T14:33:44;21.20;;;9.17;;
20296;SDS011;10307;40.100;18.336;2023-01-05T14:39:21;14.98;;;7.28;;
20296;SDS011;10307;40.100;18.336;2023-01-05T14:42:03;18.90;;;8.68;;
20296;SDS011;10307;40.100;18.336;2023-01-05T14:44:48;20.05;;;9.15;;
20296;SDS011;10307;40.100;18.336;2023-01-05T14:47:30;20.83;;;9.32;;
20296;SDS011;10307;40.100;18.336;2023-01-05T14:50:06;18.27;;;8.57;;
20296;SDS011;10307;40.100;18.336;2023-01-05T14:55:36;19.13;;;8.88;;
20296;SDS011;10307;40.100;18.336;2023-01-05T14:58:45;18.55;;;9.43;;
20296;SDS011;10307;40.100;18.336;2023-01-05T15:03:51;19.40;;;8.95;;
20296;SDS011;10307;40.100;18.336;2023-01-05T15:06:26;19.10;;;9.05;;
20296;SDS011;10307;40.100;18.336;2023-01-05T15:14:46;18.17;;;7.45;;
20296;SDS011;10307;40.100;18.336;2023-01-05T15:34:15;21.02;;;11.43;;
20296;SDS011;10307;40.100;18.336;2023-01-05T15:37:10;29.42;;;16.50;;
20296;SDS011;10307;40.100;18.336;2023-01-05T15:39:44;37.78;;;21.85;;
20296;SDS011;10307;40.100;18.336;2023-01-05T15:42:36;29.75;;;16.55;;
20296;SDS011;10307;40.100;18.336;2023-01-05T15:45:01;21.40;;;13.02;;
20296;SDS011;10307;40.100;18.336;2023-01-05T15:47:27;30.80;;;17.67;;
20296;SDS011;10307;40.100;18.336;2023-01-05T15:49:58;52.08;;;31.40;;
20296;SDS011;10307;40.100;18.336;2023-01-05T15:52:36;58.20;;;34.00;;
20296;SDS011;10307;40.100;18.336;2023-01-05T15:55:11;56.38;;;30.30;;
20296;SDS011;10307;40.100;18.336;2023-01-05T15:57:51;45.47;;;28.02;;
20296;SDS011;10307;40.100;18.336;2023-01-05T16:00:24;36.58;;;24.27;;
20296;SDS011;10307;40.100;18.336;2023-01-05T16:02:55;56.10;;;33.08;;
20296;SDS011;10307;40.100;18.336;2023-01-05T16:05:23;47.83;;;28.33;;
20296;SDS011;10307;40.100;18.336;2023-01-05T16:12:58;59.83;;;36.33;;
20296;SDS011;10307;40.100;18.336;2023-01-05T16:15:31;78.35;;;46.80;;
20296;SDS011;10307;40.100;18.336;2023-01-05T16:17:59;77.13;;;47.60;;
20296;SDS011;10307;40.100;18.336;2023-01-05T16:20:30;111.28;;;58.67;;
20296;SDS011;10307;40.100;18.336;2023-01-05T16:26:15;95.80;;;50.83;;
20296;SDS011;10307;40.100;18.336;2023-01-05T16:28:43;73.30;;;45.10;;
20296;SDS011;10307;40.100;18.336;2023-01-05T16:31:11;60.38;;;38.53;;
20296;SDS011;10307;40.100;18.336;2023-01-05T16:33:59;58.78;;;38.65;;
20296;SDS011;10307;40.100;18.336;2023-01-05T16:36:36;59.50;;;40.10;;
20296;SDS011;10307;40.100;18.336;2023-01-05T16:39:21;75.15;;;44.22;;
20296;SDS011;10307;40.100;18.336;2023-01-05T16:41:49;81.63;;;48.30;;
20296;SDS011;10307;40.100;18.336;2023-01-05T16:44:53;82.38;;;46.80;;
20296;SDS011;10307;40.100;18.336;2023-01-05T16:47:37;92.18;;;53.00;;
20296;SDS011;10307;40.100;18.336;2023-01-05T16:50:52;90.97;;;49.53;;
20296;SDS011;10307;40.100;18.336;2023-01-05T16:53:14;95.65;;;51.67;;
20296;SDS011;10307;40.100;18.336;2023-01-05T16:55:41;101.43;;;57.45;;
20296;SDS011;10307;40.100;18.336;2023-01-05T16:58:41;99.72;;;55.05;;
20296;SDS011;10307;40.100;18.336;2023-01-05T17:01:14;120.47;;;60.15;;
20296;SDS011;10307;40.100;18.336;2023-01-05T17:03:46;132.80;;;72.63;;
20296;SDS011;10307;40.100;18.336;2023-01-05T17:06:21;134.93;;;67.30;;
20296;SDS011;10307;40.100;18.336;2023-01-05T17:08:53;146.80;;;70.97;;
20296;SDS011;10307;40.100;18.336;2023-01-05T17:11:29;130.70;;;67.25;;
20296;SDS011;10307;40.100;18.336;2023-01-05T17:14:00;114.10;;;58.97;;
20296;SDS011;10307;40.100;18.336;2023-01-05T17:16:28;113.88;;;60.97;;
20296;SDS011;10307;40.100;18.336;2023-01-05T17:18:54;104.63;;;54.38;;
20296;SDS011;10307;40.100;18.336;2023-01-05T17:21:22;94.10;;;49.72;;
20296;SDS011;10307;40.100;18.336;2023-01-05T17:23:52;83.72;;;46.90;;
20296;SDS011;10307;40.100;18.336;2023-01-05T17:28:49;98.50;;;49.67;;
20296;SDS011;10307;40.100;18.336;2023-01-05T17:31:18;91.00;;;52.05;;
20296;SDS011;10307;40.100;18.336;2023-01-05T17:33:45;104.38;;;53.03;;
20296;SDS011;10307;40.100;18.336;2023-01-05T17:36:11;94.15;;;51.42;;
20296;SDS011;10307;40.100;18.336;2023-01-05T17:38:37;86.20;;;50.08;;
20296;SDS011;10307;40.100;18.336;2023-01-05T17:41:04;78.50;;;45.67;;